Hathor — PHIY — position and weather

sailwx.info

Track history (hours):
 
Tides and Currents Weather Stations Pressure Air Temp Water Temp Dewpoint Dewpoint Depression Visibility Wind Speed Wind Dir Waves Ship Positions

Hathor

Last reported at 2017-Nov-20 00:29 UTC. Time now 2017-Nov-20 23:11 UTC.
Position N 53°43' W 000°22'.

Length 89 m; draft 5.2 m.

Type: Cargo ship. MMSI: 244176000.

Date/timePositionNaut miles runAvg speedWind from/ knotsBaromVisibWave heightAir tempDewpointWater temp
2017-Nov-20 00:29N 53°43' W 000°22'0 0.0
2017-Nov-19 23:59N 53°43' W 000°22'0 0.0
2017-Nov-19 23:29N 53°43' W 000°22'0 0.0
2017-Nov-19 22:59N 53°43' W 000°22'0 0.0
2017-Nov-19 22:29N 53°43' W 000°22'0 0.0
2017-Nov-19 21:59N 53°43' W 000°22'0 0.0
2017-Nov-19 21:29N 53°43' W 000°22'0 0.0
2017-Nov-19 20:59N 53°43' W 000°22'0 0.0
2017-Nov-19 20:29N 53°43' W 000°22'0 0.0
2017-Nov-19 19:59N 53°43' W 000°22'0 0.0
2017-Nov-19 19:30N 53°43' W 000°22'0 0.1
2017-Nov-19 19:00N 53°43' W 000°22'1 1.9
2017-Nov-19 18:30N 53°43' W 000°21'4 8.6
2017-Nov-19 18:01N 53°42' W 000°14'611.2
2017-Nov-19 17:30N 53°38' W 000°07'510.9
2017-Nov-19 17:00N 53°35' E 000°01'3 6.6
2017-Nov-19 16:30N 53°34' E 000°06'5 9.4
2017-Nov-19 16:00N 53°33' E 000°14'45 3.1
2017-Nov-19 01:39N 53°02' E 001°08'1 9.5
2017-Nov-19 01:30N 53°01' E 001°10'5 9.6
2017-Nov-19 01:00N 52°59' E 001°18'5 9.6
2017-Nov-19 00:30N 52°57' E 001°25'5 9.2
2017-Nov-19 00:00N 52°55' E 001°31'4 8.8
2017-Nov-18 23:30N 52°53' E 001°38'4 8.0
2017-Nov-18 23:00N 52°51' E 001°44'4 7.3
2017-Nov-18 22:30N 52°49' E 001°49'3 6.5
2017-Nov-18 22:00N 52°47' E 001°53'3 6.0
2017-Nov-18 21:30N 52°45' E 001°57'3 5.5
2017-Nov-18 21:00N 52°43' E 002°01'3 5.2
2017-Nov-18 20:29N 52°42' E 002°05'66 5.7
2017-Nov-18 08:49N 52°07' E 003°36'2 5.4
2017-Nov-18 08:29N 52°06' E 003°39'3 5.7
2017-Nov-18 08:00N 52°05' E 003°43'3 5.7
2017-Nov-18 07:30N 52°04' E 003°47'3 6.0
2017-Nov-18 07:00N 52°03' E 003°52'3 6.1
2017-Nov-18 06:30N 52°01' E 003°57'4 7.0
2017-Nov-18 06:00N 51°60' E 004°02'4 8.5
2017-Nov-18 05:30N 51°58' E 004°08'1 1.6
2017-Nov-18 05:00N 51°57' E 004°08'0 0.0
2017-Nov-18 04:30N 51°57' E 004°08'0 0.0
2017-Nov-18 04:00N 51°57' E 004°08'0 0.0
2017-Nov-18 03:30N 51°57' E 004°08'0 0.0
2017-Nov-18 03:00N 51°57' E 004°08'0 0.0
2017-Nov-18 02:30N 51°57' E 004°08'0 0.0
2017-Nov-18 02:00N 51°57' E 004°08'0 0.0
2017-Nov-18 01:30N 51°57' E 004°08'0 0.1
2017-Nov-18 01:00N 51°57' E 004°08'0 0.0
2017-Nov-18 00:30N 51°57' E 004°08'0 0.0
2017-Nov-18 00:00N 51°57' E 004°08'0 0.0
2017-Nov-17 23:30N 51°57' E 004°08'0 0.0
2017-Nov-17 23:00N 51°57' E 004°08'0 0.0
2017-Nov-17 22:30N 51°57' E 004°08'0 0.0
2017-Nov-17 22:00N 51°57' E 004°08'0 0.0
2017-Nov-17 21:30N 51°57' E 004°08'0 0.0
2017-Nov-17 21:00N 51°57' E 004°08'0 0.7
2017-Nov-17 20:30N 51°57' E 004°08'0 0.2
2017-Nov-17 20:00N 51°57' E 004°08'0 0.0
2017-Nov-17 19:30N 51°57' E 004°08'0 0.0
2017-Nov-17 19:00N 51°57' E 004°08'0 0.0
2017-Nov-17 18:30N 51°57' E 004°08'0 0.0
2017-Nov-17 18:00N 51°57' E 004°08'0 0.0
2017-Nov-17 17:30N 51°57' E 004°08'0 0.0
2017-Nov-17 17:00N 51°57' E 004°08'0 0.0
2017-Nov-17 16:30N 51°57' E 004°08'0 0.0
2017-Nov-17 16:00N 51°57' E 004°08'0 0.0
2017-Nov-17 15:30N 51°57' E 004°08'0 0.0
2017-Nov-17 15:00N 51°57' E 004°08'0 0.0
2017-Nov-17 14:30N 51°57' E 004°08'0 0.0
2017-Nov-17 14:00N 51°57' E 004°08'0 0.0
2017-Nov-17 13:30N 51°57' E 004°08'0 0.0
2017-Nov-17 13:00N 51°57' E 004°08'0 0.0
2017-Nov-17 12:27N 51°57' E 004°08'0 0.0
2017-Nov-17 12:00N 51°57' E 004°08'0 0.0
2017-Nov-17 11:30N 51°57' E 004°08'0 0.0
2017-Nov-17 11:00N 51°57' E 004°08'0 0.0
2017-Nov-17 10:30N 51°57' E 004°08'0 0.0
2017-Nov-17 10:00N 51°57' E 004°08'0 0.0
2017-Nov-17 09:30N 51°57' E 004°08'0 0.0
2017-Nov-17 09:00N 51°57' E 004°08'0 0.0
2017-Nov-17 08:30N 51°57' E 004°08'0 0.0
2017-Nov-17 08:00N 51°57' E 004°08'0 0.0
2017-Nov-17 07:30N 51°57' E 004°08'0 0.0
2017-Nov-17 07:00N 51°57' E 004°08'0 0.0
2017-Nov-17 06:30N 51°57' E 004°08'0 0.0
2017-Nov-17 06:00N 51°57' E 004°08'0 0.0
2017-Nov-17 05:30N 51°57' E 004°08'0 0.0
2017-Nov-17 05:00N 51°57' E 004°08'0 0.0
2017-Nov-17 04:30N 51°57' E 004°08'0 0.0
2017-Nov-17 04:00N 51°57' E 004°08'0 0.0
2017-Nov-17 03:29N 51°57' E 004°08'0 0.0
2017-Nov-17 02:59N 51°57' E 004°08'0 0.0
2017-Nov-17 02:29N 51°57' E 004°08'0 0.0
2017-Nov-17 01:59N 51°57' E 004°08'0 0.0
2017-Nov-17 01:29N 51°57' E 004°08'0 0.0
2017-Nov-17 00:59N 51°57' E 004°08'0 0.0
2017-Nov-17 00:29N 51°57' E 004°08'0 0.0
2017-Nov-16 23:59N 51°57' E 004°08'0 0.0
2017-Nov-16 23:29N 51°57' E 004°08'0 0.0
2017-Nov-16 22:59N 51°57' E 004°08'0 0.0
2017-Nov-16 22:29N 51°57' E 004°08'0 0.0
2017-Nov-16 21:59N 51°57' E 004°08'0 0.0
2017-Nov-16 21:29N 51°57' E 004°08'0 0.0
2017-Nov-16 20:59N 51°57' E 004°08'0 0.0
2017-Nov-16 20:29N 51°57' E 004°08'0 0.0
2017-Nov-16 19:59N 51°57' E 004°08'0 0.0
2017-Nov-16 19:29N 51°57' E 004°08'0 0.0
2017-Nov-16 18:59N 51°57' E 004°08'0 0.0
2017-Nov-16 18:29N 51°57' E 004°08'0 0.1
2017-Nov-16 17:59N 51°57' E 004°08'0 0.0
2017-Nov-16 17:29N 51°57' E 004°08'0 0.0
2017-Nov-16 16:59N 51°57' E 004°08'0 0.0
2017-Nov-16 16:29N 51°57' E 004°08'0 0.0
2017-Nov-16 15:59N 51°57' E 004°08'0 0.0
2017-Nov-16 15:29N 51°57' E 004°08'0 0.0
2017-Nov-16 14:59N 51°57' E 004°08'0 0.0
2017-Nov-16 14:29N 51°57' E 004°08'0 0.0
2017-Nov-16 13:59N 51°57' E 004°08'0 0.0
2017-Nov-16 13:29N 51°57' E 004°08'0 0.0
2017-Nov-16 12:59N 51°57' E 004°08'0 0.0
2017-Nov-16 12:29N 51°57' E 004°08'0 0.0
2017-Nov-16 11:59N 51°57' E 004°08'0 0.0
2017-Nov-16 11:29N 51°57' E 004°08'0 0.0
2017-Nov-16 10:59N 51°57' E 004°08'0 0.0
2017-Nov-16 10:29N 51°57' E 004°08'0 0.0
2017-Nov-16 09:59N 51°57' E 004°08'0 0.0
2017-Nov-16 09:29N 51°57' E 004°08'0 0.0
2017-Nov-16 08:59N 51°57' E 004°08'0 0.0
2017-Nov-16 08:29N 51°57' E 004°08'0 0.4
2017-Nov-16 08:00N 51°58' E 004°08'4 8.3
2017-Nov-16 07:30N 51°59' E 004°02'5 9.2
2017-Nov-16 07:00N 52°01' E 003°55'5 9.7
2017-Nov-16 06:30N 52°04' E 003°48'5 9.7
2017-Nov-16 06:00N 52°08' E 003°46'510.3
2017-Nov-16 05:30N 52°14' E 003°47'5 9.9
2017-Nov-16 05:00N 52°19' E 003°48'4 8.9
2017-Nov-16 04:30N 52°23' E 003°50'5 9.2
2017-Nov-16 04:00N 52°24' E 003°57'5 9.1
2017-Nov-16 03:30N 52°25' E 004°04'4 8.7
2017-Nov-16 03:00N 52°27' E 004°11'4 8.9
2017-Nov-16 02:30N 52°27' E 004°19'4 8.6
2017-Nov-16 02:00N 52°28' E 004°25'4 8.4
2017-Nov-16 01:31N 52°28' E 004°32'2 4.6
2017-Nov-16 01:00N 52°28' E 004°36'0 0.0
2017-Nov-16 00:30N 52°28' E 004°36'0 0.0
2017-Nov-16 00:00N 52°28' E 004°36'0 0.0
2017-Nov-15 23:30N 52°28' E 004°36'0 0.0
2017-Nov-15 23:00N 52°28' E 004°36'0 0.0
2017-Nov-15 22:30N 52°28' E 004°36'0 0.0
2017-Nov-15 22:00N 52°28' E 004°36'0 0.0
2017-Nov-15 21:30N 52°28' E 004°36'0 0.0
2017-Nov-15 21:00N 52°28' E 004°36'0 0.0
2017-Nov-15 20:30N 52°28' E 004°36'0 0.0
2017-Nov-15 20:00N 52°28' E 004°36'0 0.0
2017-Nov-15 19:30N 52°28' E 004°36'0 0.0
2017-Nov-15 19:00N 52°28' E 004°36'0 0.0
2017-Nov-15 18:30N 52°28' E 004°36'0 0.0
2017-Nov-15 18:00N 52°28' E 004°36'0 0.0
2017-Nov-15 17:30N 52°28' E 004°36'0 0.0
2017-Nov-15 17:00N 52°28' E 004°36'0 0.0
2017-Nov-15 16:30N 52°28' E 004°36'0 0.0
2017-Nov-15 16:00N 52°28' E 004°36'0 0.0
2017-Nov-15 15:30N 52°28' E 004°36'0 0.0
2017-Nov-15 15:00N 52°28' E 004°36'0 0.0
2017-Nov-15 14:30N 52°28' E 004°36'0 0.0
2017-Nov-15 14:00N 52°28' E 004°36'0 0.0
2017-Nov-15 13:30N 52°28' E 004°36'0 0.0
2017-Nov-15 13:00N 52°28' E 004°36'0 0.0
2017-Nov-15 12:30N 52°28' E 004°36'0 0.1
2017-Nov-15 12:00N 52°28' E 004°36'4 7.3
2017-Nov-15 11:30N 52°28' E 004°30'5 9.5
2017-Nov-15 11:00N 52°28' E 004°23'5 9.6
2017-Nov-15 10:30N 52°27' E 004°15'4 7.4
2017-Nov-15 10:00N 52°28' E 004°08'0 0.2
2017-Nov-15 09:30N 52°27' E 004°08'0 0.0
2017-Nov-15 09:00N 52°27' E 004°08'0 0.0
2017-Nov-15 08:27N 52°27' E 004°08'0 0.0
2017-Nov-15 08:00N 52°27' E 004°08'0 0.0
2017-Nov-15 07:30N 52°27' E 004°08'0 0.0
2017-Nov-15 07:00N 52°27' E 004°08'0 0.0
2017-Nov-15 06:30N 52°27' E 004°08'0 0.0
2017-Nov-15 06:00N 52°27' E 004°08'0 0.0
2017-Nov-15 05:30N 52°27' E 004°08'0 0.1
2017-Nov-15 05:00N 52°27' E 004°09'0 0.2
2017-Nov-15 04:30N 52°28' E 004°09'0 0.1
2017-Nov-15 04:00N 52°28' E 004°09'0 0.0
2017-Nov-15 03:30N 52°28' E 004°09'0 0.4
2017-Nov-15 03:01N 52°27' E 004°08'4 7.4
2017-Nov-15 02:31N 52°25' E 004°03'5 9.1
2017-Nov-15 02:01N 52°24' E 003°56'5 9.2
2017-Nov-15 01:30N 52°23' E 003°48'5 9.6
2017-Nov-15 00:59N 52°21' E 003°42'62 8.9
2017-Nov-14 18:02N 51°39' E 002°29'3 7.2
2017-Nov-14 17:38N 51°36' E 002°26'1 7.1
2017-Nov-14 17:26N 51°35' E 002°25'3 7.1
2017-Nov-14 16:58N 51°32' E 002°21'3 6.9
2017-Nov-14 16:29N 51°30' E 002°18'4 7.4
2017-Nov-14 16:01N 51°27' E 002°15'4 7.7
2017-Nov-14 15:30N 51°24' E 002°12'4 8.0
2017-Nov-14 15:01N 51°20' E 002°09'4 8.4
2017-Nov-14 14:30N 51°16' E 002°06'4 8.3
2017-Nov-14 14:00N 51°13' E 002°02'4 8.8
2017-Nov-14 13:31N 51°10' E 001°56'5 9.1
2017-Nov-14 13:01N 51°08' E 001°51'5 9.3
2017-Nov-14 12:31N 51°05' E 001°45'5 9.7
2017-Nov-14 12:01N 51°01' E 001°39'510.1
2017-Nov-14 11:30N 50°57' E 001°34'510.4
2017-Nov-14 11:00N 50°53' E 001°29'63 9.7
2017-Nov-14 04:34N 50°18' E 000°07'110.8
2017-Nov-14 04:29N 50°18' E 000°06'510.6
2017-Nov-14 04:00N 50°17' W 000°02'510.4
2017-Nov-14 03:31N 50°15' W 000°10'510.1
2017-Nov-14 02:59N 50°14' W 000°18'5 9.8
2017-Nov-14 02:26N 50°12' W 000°26'5 9.4
2017-Nov-14 01:55N 50°11' W 000°33'4 9.0
2017-Nov-14 01:30N 50°10' W 000°39'192 8.2
2017-Nov-13 01:59N 48°43' W 005°03'3 7.1
2017-Nov-13 01:30N 48°41' W 005°07'4 7.2
2017-Nov-13 01:01N 48°39' W 005°11'4 7.3
2017-Nov-13 00:28N 48°36' W 005°15'3 7.4
2017-Nov-13 00:01N 48°34' W 005°19'4 7.4
2017-Nov-12 23:28N 48°31' W 005°23'3 6.2
2017-Nov-12 22:57N 48°28' W 005°23'3 6.5
2017-Nov-12 22:30N 48°25' W 005°21'3 6.7
2017-Nov-12 22:00N 48°22' W 005°20'3 6.8
2017-Nov-12 21:30N 48°19' W 005°19'3 6.5
2017-Nov-12 21:00N 48°16' W 005°17'3 6.6
2017-Nov-12 20:30N 48°12' W 005°16'3 6.2
2017-Nov-12 20:00N 48°09' W 005°15'3 6.0
2017-Nov-12 19:31N 48°07' W 005°14'3 6.0
2017-Nov-12 19:00N 48°04' W 005°12'3 5.8
2017-Nov-12 18:30N 48°01' W 005°10'3 5.5
2017-Nov-12 18:00N 47°59' W 005°08'3 5.4
2017-Nov-12 17:30N 47°56' W 005°06'3 5.6
2017-Nov-12 17:00N 47°54' W 005°04'3 5.8
2017-Nov-12 16:31N 47°52' W 005°01'3 5.4
2017-Nov-12 16:00N 47°49' W 004°59'3 5.6
2017-Nov-12 15:30N 47°47' W 004°57'3 5.5
2017-Nov-12 15:00N 47°45' W 004°55'3 5.5
2017-Nov-12 14:29N 47°42' W 004°52'3 5.6
2017-Nov-12 14:00N 47°40' W 004°50'3 5.5
2017-Nov-12 13:28N 47°37' W 004°48'3 5.7
2017-Nov-12 12:58N 47°35' W 004°46'3 5.9
2017-Nov-12 12:30N 47°32' W 004°44'3 6.0
2017-Nov-12 11:59N 47°30' W 004°42'204 6.7
2017-Nov-11 05:31N 44°14' W 003°21'0 6.7
2017-Nov-11 05:30N 44°14' W 003°21'4 7.4
2017-Nov-11 05:00N 44°10' W 003°20'4 7.6
2017-Nov-11 04:31N 44°07' W 003°19'4 7.7
2017-Nov-11 04:01N 44°03' W 003°18'4 7.6
2017-Nov-11 03:30N 43°59' W 003°16'4 7.7
2017-Nov-11 03:01N 43°56' W 003°15'4 7.5
2017-Nov-11 02:30N 43°52' W 003°14'4 7.8
2017-Nov-11 02:01N 43°48' W 003°13'4 7.7
2017-Nov-11 01:31N 43°44' W 003°12'4 7.7
2017-Nov-11 01:01N 43°41' W 003°10'4 7.8
2017-Nov-11 00:30N 43°37' W 003°09'4 7.5
2017-Nov-11 00:01N 43°33' W 003°08'4 7.3
2017-Nov-10 23:31N 43°30' W 003°07'4 7.3
2017-Nov-10 23:01N 43°26' W 003°06'4 7.3
2017-Nov-10 22:31N 43°23' W 003°05'1 2.5
2017-Nov-10 22:01N 43°22' W 003°04'0 0.0
2017-Nov-10 21:28N 43°22' W 003°04'0 0.0
2017-Nov-10 20:58N 43°22' W 003°04'0 0.0
2017-Nov-10 20:28N 43°22' W 003°04'0 0.0
2017-Nov-10 19:58N 43°22' W 003°04'0 0.0
2017-Nov-10 19:28N 43°22' W 003°04'0 0.0
2017-Nov-10 18:58N 43°22' W 003°04'0 0.0
2017-Nov-10 18:28N 43°22' W 003°04'0 0.0
2017-Nov-10 17:58N 43°22' W 003°04'0 0.0
2017-Nov-10 17:28N 43°22' W 003°04'0 0.0
2017-Nov-10 16:58N 43°22' W 003°04'0 0.0
2017-Nov-10 16:28N 43°22' W 003°04'0 0.0
2017-Nov-10 15:58N 43°22' W 003°04'0 0.0
2017-Nov-10 15:28N 43°22' W 003°04'0 0.0
2017-Nov-10 14:58N 43°22' W 003°04'0 0.0
2017-Nov-10 14:28N 43°22' W 003°04'0 0.0
2017-Nov-10 13:58N 43°22' W 003°04'0 0.0
2017-Nov-10 13:28N 43°22' W 003°04'0 0.0
2017-Nov-10 12:58N 43°22' W 003°04'0 0.1
2017-Nov-10 12:28N 43°22' W 003°04'0 0.0
2017-Nov-10 11:58N 43°22' W 003°04'0 0.0
2017-Nov-10 11:28N 43°22' W 003°04'0 0.0
2017-Nov-10 10:58N 43°22' W 003°04'0 0.0
2017-Nov-10 10:25N 43°22' W 003°04'0 0.0
2017-Nov-10 09:58N 43°22' W 003°04'0 0.0
2017-Nov-10 09:28N 43°22' W 003°04'0 0.0
2017-Nov-10 08:58N 43°22' W 003°04'0 0.0
2017-Nov-10 08:28N 43°22' W 003°04'0 0.0
2017-Nov-10 07:58N 43°22' W 003°04'0 0.0
2017-Nov-10 07:28N 43°22' W 003°04'0 0.0
2017-Nov-10 06:58N 43°22' W 003°04'0 0.0
2017-Nov-10 06:28N 43°22' W 003°04'0 0.0
2017-Nov-10 05:58N 43°22' W 003°04'0 0.0
2017-Nov-10 05:28N 43°22' W 003°04'0 0.0
2017-Nov-10 04:58N 43°22' W 003°04'0 0.0
2017-Nov-10 04:28N 43°22' W 003°04'0 0.0
2017-Nov-10 03:58N 43°22' W 003°04'0 0.0
2017-Nov-10 03:28N 43°22' W 003°04'0 0.0
2017-Nov-10 02:58N 43°22' W 003°04'0 0.0
2017-Nov-10 02:28N 43°22' W 003°04'0 0.0
2017-Nov-10 01:58N 43°22' W 003°04'0 0.0
2017-Nov-10 01:28N 43°22' W 003°04'0 0.0
2017-Nov-10 00:58N 43°22' W 003°04'0 0.0
2017-Nov-10 00:31N 43°22' W 003°04'  
Track history (hours):
 
Tides and Currents Weather Stations Pressure Air Temp Water Temp Dewpoint Dewpoint Depression Visibility Wind Speed Wind Dir Waves Ship Positions

Hathor

Last reported at 2017-Nov-20 00:29 UTC. Time now 2017-Nov-20 23:11 UTC.
Position N 53°43' W 000°22'.

Length 89 m; draft 5.2 m.

Type: Cargo ship. MMSI: 244176000.

Date/timePositionNaut miles runAvg speedWind from/ knotsBaromVisibWave heightAir tempDewpointWater temp
2017-Nov-20 00:29N 53°43' W 000°22'0 0.0
2017-Nov-19 23:59N 53°43' W 000°22'0 0.0
2017-Nov-19 23:29N 53°43' W 000°22'0 0.0
2017-Nov-19 22:59N 53°43' W 000°22'0 0.0
2017-Nov-19 22:29N 53°43' W 000°22'0 0.0
2017-Nov-19 21:59N 53°43' W 000°22'0 0.0
2017-Nov-19 21:29N 53°43' W 000°22'0 0.0
2017-Nov-19 20:59N 53°43' W 000°22'0 0.0
2017-Nov-19 20:29N 53°43' W 000°22'0 0.0
2017-Nov-19 19:59N 53°43' W 000°22'0 0.0
2017-Nov-19 19:30N 53°43' W 000°22'0 0.1
2017-Nov-19 19:00N 53°43' W 000°22'1 1.9
2017-Nov-19 18:30N 53°43' W 000°21'4 8.6
2017-Nov-19 18:01N 53°42' W 000°14'611.2
2017-Nov-19 17:30N 53°38' W 000°07'510.9
2017-Nov-19 17:00N 53°35' E 000°01'3 6.6
2017-Nov-19 16:30N 53°34' E 000°06'5 9.4
2017-Nov-19 16:00N 53°33' E 000°14'45 3.1
2017-Nov-19 01:39N 53°02' E 001°08'1 9.5
2017-Nov-19 01:30N 53°01' E 001°10'5 9.6
2017-Nov-19 01:00N 52°59' E 001°18'5 9.6
2017-Nov-19 00:30N 52°57' E 001°25'5 9.2
2017-Nov-19 00:00N 52°55' E 001°31'4 8.8
2017-Nov-18 23:30N 52°53' E 001°38'4 8.0
2017-Nov-18 23:00N 52°51' E 001°44'4 7.3
2017-Nov-18 22:30N 52°49' E 001°49'3 6.5
2017-Nov-18 22:00N 52°47' E 001°53'3 6.0
2017-Nov-18 21:30N 52°45' E 001°57'3 5.5
2017-Nov-18 21:00N 52°43' E 002°01'3 5.2
2017-Nov-18 20:29N 52°42' E 002°05'66 5.7
2017-Nov-18 08:49N 52°07' E 003°36'2 5.4
2017-Nov-18 08:29N 52°06' E 003°39'3 5.7
2017-Nov-18 08:00N 52°05' E 003°43'3 5.7
2017-Nov-18 07:30N 52°04' E 003°47'3 6.0
2017-Nov-18 07:00N 52°03' E 003°52'3 6.1
2017-Nov-18 06:30N 52°01' E 003°57'4 7.0
2017-Nov-18 06:00N 51°60' E 004°02'4 8.5
2017-Nov-18 05:30N 51°58' E 004°08'1 1.6
2017-Nov-18 05:00N 51°57' E 004°08'0 0.0
2017-Nov-18 04:30N 51°57' E 004°08'0 0.0
2017-Nov-18 04:00N 51°57' E 004°08'0 0.0
2017-Nov-18 03:30N 51°57' E 004°08'0 0.0
2017-Nov-18 03:00N 51°57' E 004°08'0 0.0
2017-Nov-18 02:30N 51°57' E 004°08'0 0.0
2017-Nov-18 02:00N 51°57' E 004°08'0 0.0
2017-Nov-18 01:30N 51°57' E 004°08'0 0.1
2017-Nov-18 01:00N 51°57' E 004°08'0 0.0
2017-Nov-18 00:30N 51°57' E 004°08'0 0.0
2017-Nov-18 00:00N 51°57' E 004°08'0 0.0
2017-Nov-17 23:30N 51°57' E 004°08'0 0.0
2017-Nov-17 23:00N 51°57' E 004°08'0 0.0
2017-Nov-17 22:30N 51°57' E 004°08'0 0.0
2017-Nov-17 22:00N 51°57' E 004°08'0 0.0
2017-Nov-17 21:30N 51°57' E 004°08'0 0.0
2017-Nov-17 21:00N 51°57' E 004°08'0 0.7
2017-Nov-17 20:30N 51°57' E 004°08'0 0.2
2017-Nov-17 20:00N 51°57' E 004°08'0 0.0
2017-Nov-17 19:30N 51°57' E 004°08'0 0.0
2017-Nov-17 19:00N 51°57' E 004°08'0 0.0
2017-Nov-17 18:30N 51°57' E 004°08'0 0.0
2017-Nov-17 18:00N 51°57' E 004°08'0 0.0
2017-Nov-17 17:30N 51°57' E 004°08'0 0.0
2017-Nov-17 17:00N 51°57' E 004°08'0 0.0
2017-Nov-17 16:30N 51°57' E 004°08'0 0.0
2017-Nov-17 16:00N 51°57' E 004°08'0 0.0
2017-Nov-17 15:30N 51°57' E 004°08'0 0.0
2017-Nov-17 15:00N 51°57' E 004°08'0 0.0
2017-Nov-17 14:30N 51°57' E 004°08'0 0.0
2017-Nov-17 14:00N 51°57' E 004°08'0 0.0
2017-Nov-17 13:30N 51°57' E 004°08'0 0.0
2017-Nov-17 13:00N 51°57' E 004°08'0 0.0
2017-Nov-17 12:27N 51°57' E 004°08'0 0.0
2017-Nov-17 12:00N 51°57' E 004°08'0 0.0
2017-Nov-17 11:30N 51°57' E 004°08'0 0.0
2017-Nov-17 11:00N 51°57' E 004°08'0 0.0
2017-Nov-17 10:30N 51°57' E 004°08'0 0.0
2017-Nov-17 10:00N 51°57' E 004°08'0 0.0
2017-Nov-17 09:30N 51°57' E 004°08'0 0.0
2017-Nov-17 09:00N 51°57' E 004°08'0 0.0
2017-Nov-17 08:30N 51°57' E 004°08'0 0.0
2017-Nov-17 08:00N 51°57' E 004°08'0 0.0
2017-Nov-17 07:30N 51°57' E 004°08'0 0.0
2017-Nov-17 07:00N 51°57' E 004°08'0 0.0
2017-Nov-17 06:30N 51°57' E 004°08'0 0.0
2017-Nov-17 06:00N 51°57' E 004°08'0 0.0
2017-Nov-17 05:30N 51°57' E 004°08'0 0.0
2017-Nov-17 05:00N 51°57' E 004°08'0 0.0
2017-Nov-17 04:30N 51°57' E 004°08'0 0.0
2017-Nov-17 04:00N 51°57' E 004°08'0 0.0
2017-Nov-17 03:29N 51°57' E 004°08'0 0.0
2017-Nov-17 02:59N 51°57' E 004°08'0 0.0
2017-Nov-17 02:29N 51°57' E 004°08'0 0.0
2017-Nov-17 01:59N 51°57' E 004°08'0 0.0
2017-Nov-17 01:29N 51°57' E 004°08'0 0.0
2017-Nov-17 00:59N 51°57' E 004°08'0 0.0
2017-Nov-17 00:29N 51°57' E 004°08'0 0.0
2017-Nov-16 23:59N 51°57' E 004°08'0 0.0
2017-Nov-16 23:29N 51°57' E 004°08'0 0.0
2017-Nov-16 22:59N 51°57' E 004°08'0 0.0
2017-Nov-16 22:29N 51°57' E 004°08'0 0.0
2017-Nov-16 21:59N 51°57' E 004°08'0 0.0
2017-Nov-16 21:29N 51°57' E 004°08'0 0.0
2017-Nov-16 20:59N 51°57' E 004°08'0 0.0
2017-Nov-16 20:29N 51°57' E 004°08'0 0.0
2017-Nov-16 19:59N 51°57' E 004°08'0 0.0
2017-Nov-16 19:29N 51°57' E 004°08'0 0.0
2017-Nov-16 18:59N 51°57' E 004°08'0 0.0
2017-Nov-16 18:29N 51°57' E 004°08'0 0.1
2017-Nov-16 17:59N 51°57' E 004°08'0 0.0
2017-Nov-16 17:29N 51°57' E 004°08'0 0.0
2017-Nov-16 16:59N 51°57' E 004°08'0 0.0
2017-Nov-16 16:29N 51°57' E 004°08'0 0.0
2017-Nov-16 15:59N 51°57' E 004°08'0 0.0
2017-Nov-16 15:29N 51°57' E 004°08'0 0.0
2017-Nov-16 14:59N 51°57' E 004°08'0 0.0
2017-Nov-16 14:29N 51°57' E 004°08'0 0.0
2017-Nov-16 13:59N 51°57' E 004°08'0 0.0
2017-Nov-16 13:29N 51°57' E 004°08'0 0.0
2017-Nov-16 12:59N 51°57' E 004°08'0 0.0
2017-Nov-16 12:29N 51°57' E 004°08'0 0.0
2017-Nov-16 11:59N 51°57' E 004°08'0 0.0
2017-Nov-16 11:29N 51°57' E 004°08'0 0.0
2017-Nov-16 10:59N 51°57' E 004°08'0 0.0
2017-Nov-16 10:29N 51°57' E 004°08'0 0.0
2017-Nov-16 09:59N 51°57' E 004°08'0 0.0
2017-Nov-16 09:29N 51°57' E 004°08'0 0.0
2017-Nov-16 08:59N 51°57' E 004°08'0 0.0
2017-Nov-16 08:29N 51°57' E 004°08'0 0.4
2017-Nov-16 08:00N 51°58' E 004°08'4 8.3
2017-Nov-16 07:30N 51°59' E 004°02'5 9.2
2017-Nov-16 07:00N 52°01' E 003°55'5 9.7
2017-Nov-16 06:30N 52°04' E 003°48'5 9.7
2017-Nov-16 06:00N 52°08' E 003°46'510.3
2017-Nov-16 05:30N 52°14' E 003°47'5 9.9
2017-Nov-16 05:00N 52°19' E 003°48'4 8.9
2017-Nov-16 04:30N 52°23' E 003°50'5 9.2
2017-Nov-16 04:00N 52°24' E 003°57'5 9.1
2017-Nov-16 03:30N 52°25' E 004°04'4 8.7
2017-Nov-16 03:00N 52°27' E 004°11'4 8.9
2017-Nov-16 02:30N 52°27' E 004°19'4 8.6
2017-Nov-16 02:00N 52°28' E 004°25'4 8.4
2017-Nov-16 01:31N 52°28' E 004°32'2 4.6
2017-Nov-16 01:00N 52°28' E 004°36'0 0.0
2017-Nov-16 00:30N 52°28' E 004°36'0 0.0
2017-Nov-16 00:00N 52°28' E 004°36'0 0.0
2017-Nov-15 23:30N 52°28' E 004°36'0 0.0
2017-Nov-15 23:00N 52°28' E 004°36'0 0.0
2017-Nov-15 22:30N 52°28' E 004°36'0 0.0
2017-Nov-15 22:00N 52°28' E 004°36'0 0.0
2017-Nov-15 21:30N 52°28' E 004°36'0 0.0
2017-Nov-15 21:00N 52°28' E 004°36'0 0.0
2017-Nov-15 20:30N 52°28' E 004°36'0 0.0
2017-Nov-15 20:00N 52°28' E 004°36'0 0.0
2017-Nov-15 19:30N 52°28' E 004°36'0 0.0
2017-Nov-15 19:00N 52°28' E 004°36'0 0.0
2017-Nov-15 18:30N 52°28' E 004°36'0 0.0
2017-Nov-15 18:00N 52°28' E 004°36'0 0.0
2017-Nov-15 17:30N 52°28' E 004°36'0 0.0
2017-Nov-15 17:00N 52°28' E 004°36'0 0.0
2017-Nov-15 16:30N 52°28' E 004°36'0 0.0
2017-Nov-15 16:00N 52°28' E 004°36'0 0.0
2017-Nov-15 15:30N 52°28' E 004°36'0 0.0
2017-Nov-15 15:00N 52°28' E 004°36'0 0.0
2017-Nov-15 14:30N 52°28' E 004°36'0 0.0
2017-Nov-15 14:00N 52°28' E 004°36'0 0.0
2017-Nov-15 13:30N 52°28' E 004°36'0 0.0
2017-Nov-15 13:00N 52°28' E 004°36'0 0.0
2017-Nov-15 12:30N 52°28' E 004°36'0 0.1
2017-Nov-15 12:00N 52°28' E 004°36'4 7.3
2017-Nov-15 11:30N 52°28' E 004°30'5 9.5
2017-Nov-15 11:00N 52°28' E 004°23'5 9.6
2017-Nov-15 10:30N 52°27' E 004°15'4 7.4
2017-Nov-15 10:00N 52°28' E 004°08'0 0.2
2017-Nov-15 09:30N 52°27' E 004°08'0 0.0
2017-Nov-15 09:00N 52°27' E 004°08'0 0.0
2017-Nov-15 08:27N 52°27' E 004°08'0 0.0
2017-Nov-15 08:00N 52°27' E 004°08'0 0.0
2017-Nov-15 07:30N 52°27' E 004°08'0 0.0
2017-Nov-15 07:00N 52°27' E 004°08'0 0.0
2017-Nov-15 06:30N 52°27' E 004°08'0 0.0
2017-Nov-15 06:00N 52°27' E 004°08'0 0.0
2017-Nov-15 05:30N 52°27' E 004°08'0 0.1
2017-Nov-15 05:00N 52°27' E 004°09'0 0.2
2017-Nov-15 04:30N 52°28' E 004°09'0 0.1
2017-Nov-15 04:00N 52°28' E 004°09'0 0.0
2017-Nov-15 03:30N 52°28' E 004°09'0 0.4
2017-Nov-15 03:01N 52°27' E 004°08'4 7.4
2017-Nov-15 02:31N 52°25' E 004°03'5 9.1
2017-Nov-15 02:01N 52°24' E 003°56'5 9.2
2017-Nov-15 01:30N 52°23' E 003°48'5 9.6
2017-Nov-15 00:59N 52°21' E 003°42'62 8.9
2017-Nov-14 18:02N 51°39' E 002°29'3 7.2
2017-Nov-14 17:38N 51°36' E 002°26'1 7.1
2017-Nov-14 17:26N 51°35' E 002°25'3 7.1
2017-Nov-14 16:58N 51°32' E 002°21'3 6.9
2017-Nov-14 16:29N 51°30' E 002°18'4 7.4
2017-Nov-14 16:01N 51°27' E 002°15'4 7.7
2017-Nov-14 15:30N 51°24' E 002°12'4 8.0
2017-Nov-14 15:01N 51°20' E 002°09'4 8.4
2017-Nov-14 14:30N 51°16' E 002°06'4 8.3
2017-Nov-14 14:00N 51°13' E 002°02'4 8.8
2017-Nov-14 13:31N 51°10' E 001°56'5 9.1
2017-Nov-14 13:01N 51°08' E 001°51'5 9.3
2017-Nov-14 12:31N 51°05' E 001°45'5 9.7
2017-Nov-14 12:01N 51°01' E 001°39'510.1
2017-Nov-14 11:30N 50°57' E 001°34'510.4
2017-Nov-14 11:00N 50°53' E 001°29'63 9.7
2017-Nov-14 04:34N 50°18' E 000°07'110.8
2017-Nov-14 04:29N 50°18' E 000°06'510.6
2017-Nov-14 04:00N 50°17' W 000°02'510.4
2017-Nov-14 03:31N 50°15' W 000°10'510.1
2017-Nov-14 02:59N 50°14' W 000°18'5 9.8
2017-Nov-14 02:26N 50°12' W 000°26'5 9.4
2017-Nov-14 01:55N 50°11' W 000°33'4 9.0
2017-Nov-14 01:30N 50°10' W 000°39'192 8.2
2017-Nov-13 01:59N 48°43' W 005°03'3 7.1
2017-Nov-13 01:30N 48°41' W 005°07'4 7.2
2017-Nov-13 01:01N 48°39' W 005°11'4 7.3
2017-Nov-13 00:28N 48°36' W 005°15'3 7.4
2017-Nov-13 00:01N 48°34' W 005°19'4 7.4
2017-Nov-12 23:28N 48°31' W 005°23'3 6.2
2017-Nov-12 22:57N 48°28' W 005°23'3 6.5
2017-Nov-12 22:30N 48°25' W 005°21'3 6.7
2017-Nov-12 22:00N 48°22' W 005°20'3 6.8
2017-Nov-12 21:30N 48°19' W 005°19'3 6.5
2017-Nov-12 21:00N 48°16' W 005°17'3 6.6
2017-Nov-12 20:30N 48°12' W 005°16'3 6.2
2017-Nov-12 20:00N 48°09' W 005°15'3 6.0
2017-Nov-12 19:31N 48°07' W 005°14'3 6.0
2017-Nov-12 19:00N 48°04' W 005°12'3 5.8
2017-Nov-12 18:30N 48°01' W 005°10'3 5.5
2017-Nov-12 18:00N 47°59' W 005°08'3 5.4
2017-Nov-12 17:30N 47°56' W 005°06'3 5.6
2017-Nov-12 17:00N 47°54' W 005°04'3 5.8
2017-Nov-12 16:31N 47°52' W 005°01'3 5.4
2017-Nov-12 16:00N 47°49' W 004°59'3 5.6
2017-Nov-12 15:30N 47°47' W 004°57'3 5.5
2017-Nov-12 15:00N 47°45' W 004°55'3 5.5
2017-Nov-12 14:29N 47°42' W 004°52'3 5.6
2017-Nov-12 14:00N 47°40' W 004°50'3 5.5
2017-Nov-12 13:28N 47°37' W 004°48'3 5.7
2017-Nov-12 12:58N 47°35' W 004°46'3 5.9
2017-Nov-12 12:30N 47°32' W 004°44'3 6.0
2017-Nov-12 11:59N 47°30' W 004°42'204 6.7
2017-Nov-11 05:31N 44°14' W 003°21'0 6.7
2017-Nov-11 05:30N 44°14' W 003°21'4 7.4
2017-Nov-11 05:00N 44°10' W 003°20'4 7.6
2017-Nov-11 04:31N 44°07' W 003°19'4 7.7
2017-Nov-11 04:01N 44°03' W 003°18'4 7.6
2017-Nov-11 03:30N 43°59' W 003°16'4 7.7
2017-Nov-11 03:01N 43°56' W 003°15'4 7.5
2017-Nov-11 02:30N 43°52' W 003°14'4 7.8
2017-Nov-11 02:01N 43°48' W 003°13'4 7.7
2017-Nov-11 01:31N 43°44' W 003°12'4 7.7
2017-Nov-11 01:01N 43°41' W 003°10'4 7.8
2017-Nov-11 00:30N 43°37' W 003°09'4 7.5
2017-Nov-11 00:01N 43°33' W 003°08'4 7.3
2017-Nov-10 23:31N 43°30' W 003°07'4 7.3
2017-Nov-10 23:01N 43°26' W 003°06'4 7.3
2017-Nov-10 22:31N 43°23' W 003°05'1 2.5
2017-Nov-10 22:01N 43°22' W 003°04'0 0.0
2017-Nov-10 21:28N 43°22' W 003°04'0 0.0
2017-Nov-10 20:58N 43°22' W 003°04'0 0.0
2017-Nov-10 20:28N 43°22' W 003°04'0 0.0
2017-Nov-10 19:58N 43°22' W 003°04'0 0.0
2017-Nov-10 19:28N 43°22' W 003°04'0 0.0
2017-Nov-10 18:58N 43°22' W 003°04'0 0.0
2017-Nov-10 18:28N 43°22' W 003°04'0 0.0
2017-Nov-10 17:58N 43°22' W 003°04'0 0.0
2017-Nov-10 17:28N 43°22' W 003°04'0 0.0
2017-Nov-10 16:58N 43°22' W 003°04'0 0.0
2017-Nov-10 16:28N 43°22' W 003°04'0 0.0
2017-Nov-10 15:58N 43°22' W 003°04'0 0.0
2017-Nov-10 15:28N 43°22' W 003°04'0 0.0
2017-Nov-10 14:58N 43°22' W 003°04'0 0.0
2017-Nov-10 14:28N 43°22' W 003°04'0 0.0
2017-Nov-10 13:58N 43°22' W 003°04'0 0.0
2017-Nov-10 13:28N 43°22' W 003°04'0 0.0
2017-Nov-10 12:58N 43°22' W 003°04'0 0.1
2017-Nov-10 12:28N 43°22' W 003°04'0 0.0
2017-Nov-10 11:58N 43°22' W 003°04'0 0.0
2017-Nov-10 11:28N 43°22' W 003°04'0 0.0
2017-Nov-10 10:58N 43°22' W 003°04'0 0.0
2017-Nov-10 10:25N 43°22' W 003°04'0 0.0
2017-Nov-10 09:58N 43°22' W 003°04'0 0.0
2017-Nov-10 09:28N 43°22' W 003°04'0 0.0
2017-Nov-10 08:58N 43°22' W 003°04'0 0.0
2017-Nov-10 08:28N 43°22' W 003°04'0 0.0
2017-Nov-10 07:58N 43°22' W 003°04'0 0.0
2017-Nov-10 07:28N 43°22' W 003°04'0 0.0
2017-Nov-10 06:58N 43°22' W 003°04'0 0.0
2017-Nov-10 06:28N 43°22' W 003°04'0 0.0
2017-Nov-10 05:58N 43°22' W 003°04'0 0.0
2017-Nov-10 05:28N 43°22' W 003°04'0 0.0
2017-Nov-10 04:58N 43°22' W 003°04'0 0.0
2017-Nov-10 04:28N 43°22' W 003°04'0 0.0
2017-Nov-10 03:58N 43°22' W 003°04'0 0.0
2017-Nov-10 03:28N 43°22' W 003°04'0 0.0
2017-Nov-10 02:58N 43°22' W 003°04'0 0.0
2017-Nov-10 02:28N 43°22' W 003°04'0 0.0
2017-Nov-10 01:58N 43°22' W 003°04'0 0.0
2017-Nov-10 01:28N 43°22' W 003°04'0 0.0
2017-Nov-10 00:58N 43°22' W 003°04'0 0.0
2017-Nov-10 00:31N 43°22' W 003°04'  

Dump ship's entire track history